sensor_id;sensor_type;location;lat;lon;timestamp;temperature;humidity
29255;DHT22;16277;48.890;2.306;2023-11-19T00:12:04;16.70;99.90
29255;DHT22;16277;48.890;2.306;2023-11-19T00:27:08;16.80;99.90
29255;DHT22;16277;48.890;2.306;2023-11-19T00:42:13;16.80;99.90
29255;DHT22;16277;48.890;2.306;2023-11-19T00:57:17;16.90;99.90
29255;DHT22;16277;48.890;2.306;2023-11-19T01:12:22;17.00;99.90
29255;DHT22;16277;48.890;2.306;2023-11-19T01:27:26;17.10;99.90
29255;DHT22;16277;48.890;2.306;2023-11-19T01:42:36;17.00;99.90
29255;DHT22;16277;48.890;2.306;2023-11-19T01:57:40;16.90;99.90
29255;DHT22;16277;48.890;2.306;2023-11-19T02:12:46;17.00;99.90
29255;DHT22;16277;48.890;2.306;2023-11-19T02:27:53;16.80;99.90
29255;DHT22;16277;48.890;2.306;2023-11-19T02:43:00;16.90;99.90
29255;DHT22;16277;48.890;2.306;2023-11-19T02:58:08;16.80;99.90
29255;DHT22;16277;48.890;2.306;2023-11-19T03:13:19;16.80;99.90
29255;DHT22;16277;48.890;2.306;2023-11-19T03:28:29;16.80;99.90
29255;DHT22;16277;48.890;2.306;2023-11-19T03:43:34;16.60;99.90
29255;DHT22;16277;48.890;2.306;2023-11-19T03:58:39;16.70;99.90
29255;DHT22;16277;48.890;2.306;2023-11-19T04:13:43;16.60;99.90
29255;DHT22;16277;48.890;2.306;2023-11-19T04:28:48;16.30;99.90
29255;DHT22;16277;48.890;2.306;2023-11-19T04:43:56;16.30;99.90
29255;DHT22;16277;48.890;2.306;2023-11-19T04:59:01;16.30;99.90
29255;DHT22;16277;48.890;2.306;2023-11-19T05:14:06;16.20;99.90
29255;DHT22;16277;48.890;2.306;2023-11-19T05:29:10;16.20;99.90
29255;DHT22;16277;48.890;2.306;2023-11-19T05:44:15;15.90;99.90
29255;DHT22;16277;48.890;2.306;2023-11-19T05:59:19;16.00;99.90
29255;DHT22;16277;48.890;2.306;2023-11-19T06:14:26;15.90;99.90
29255;DHT22;16277;48.890;2.306;2023-11-19T06:29:30;16.00;99.90
29255;DHT22;16277;48.890;2.306;2023-11-19T06:44:34;15.80;99.90
29255;DHT22;16277;48.890;2.306;2023-11-19T06:59:39;15.70;99.90
29255;DHT22;16277;48.890;2.306;2023-11-19T07:14:44;15.60;99.90
29255;DHT22;16277;48.890;2.306;2023-11-19T07:29:48;15.80;99.90
29255;DHT22;16277;48.890;2.306;2023-11-19T07:44:53;15.70;99.90
29255;DHT22;16277;48.890;2.306;2023-11-19T07:59:58;15.70;99.90
29255;DHT22;16277;48.890;2.306;2023-11-19T08:15:14;15.80;99.90
29255;DHT22;16277;48.890;2.306;2023-11-19T08:30:34;15.60;99.90
29255;DHT22;16277;48.890;2.306;2023-11-19T08:45:39;15.70;99.90
29255;DHT22;16277;48.890;2.306;2023-11-19T09:00:43;15.50;99.90
29255;DHT22;16277;48.890;2.306;2023-11-19T09:15:48;15.80;99.90
29255;DHT22;16277;48.890;2.306;2023-11-19T09:30:52;15.60;99.90
29255;DHT22;16277;48.890;2.306;2023-11-19T09:45:58;15.60;99.90
29255;DHT22;16277;48.890;2.306;2023-11-19T10:01:08;15.90;99.90
29255;DHT22;16277;48.890;2.306;2023-11-19T10:16:18;16.20;99.90
29255;DHT22;16277;48.890;2.306;2023-11-19T10:31:22;16.50;99.90
29255;DHT22;16277;48.890;2.306;2023-11-19T10:46:38;17.10;99.90
29255;DHT22;16277;48.890;2.306;2023-11-19T11:01:45;17.00;99.90
29255;DHT22;16277;48.890;2.306;2023-11-19T11:16:50;17.10;99.90
29255;DHT22;16277;48.890;2.306;2023-11-19T11:32:02;16.60;99.90
29255;DHT22;16277;48.890;2.306;2023-11-19T11:47:10;16.80;99.90
29255;DHT22;16277;48.890;2.306;2023-11-19T12:02:16;16.80;99.90
29255;DHT22;16277;48.890;2.306;2023-11-19T12:17:42;16.80;99.90
29255;DHT22;16277;48.890;2.306;2023-11-19T12:32:48;16.90;99.90
29255;DHT22;16277;48.890;2.306;2023-11-19T12:48:06;16.70;99.90
29255;DHT22;16277;48.890;2.306;2023-11-19T13:03:10;16.60;99.90
29255;DHT22;16277;48.890;2.306;2023-11-19T13:18:16;16.70;99.90
29255;DHT22;16277;48.890;2.306;2023-11-19T13:33:21;16.90;99.90
29255;DHT22;16277;48.890;2.306;2023-11-19T13:48:26;16.90;99.90
29255;DHT22;16277;48.890;2.306;2023-11-19T14:03:32;16.70;99.90
29255;DHT22;16277;48.890;2.306;2023-11-19T14:18:37;16.80;99.90
29255;DHT22;16277;48.890;2.306;2023-11-19T14:33:41;16.50;99.90
29255;DHT22;16277;48.890;2.306;2023-11-19T14:48:46;16.70;99.90
29255;DHT22;16277;48.890;2.306;2023-11-19T15:03:50;16.80;99.90
29255;DHT22;16277;48.890;2.306;2023-11-19T15:18:58;17.00;99.90
29255;DHT22;16277;48.890;2.306;2023-11-19T15:34:03;16.80;99.90
29255;DHT22;16277;48.890;2.306;2023-11-19T15:49:08;16.70;99.90
29255;DHT22;16277;48.890;2.306;2023-11-19T16:04:12;16.70;99.90
29255;DHT22;16277;48.890;2.306;2023-11-19T16:19:17;16.50;99.90
29255;DHT22;16277;48.890;2.306;2023-11-19T16:34:21;16.40;99.90
29255;DHT22;16277;48.890;2.306;2023-11-19T16:49:26;16.50;99.90
29255;DHT22;16277;48.890;2.306;2023-11-19T17:04:31;16.60;99.90
29255;DHT22;16277;48.890;2.306;2023-11-19T17:19:35;16.30;99.90
29255;DHT22;16277;48.890;2.306;2023-11-19T17:34:40;16.30;99.90
29255;DHT22;16277;48.890;2.306;2023-11-19T17:49:44;16.40;99.90
29255;DHT22;16277;48.890;2.306;2023-11-19T18:04:50;16.20;99.90
29255;DHT22;16277;48.890;2.306;2023-11-19T18:19:54;16.40;99.90
29255;DHT22;16277;48.890;2.306;2023-11-19T18:34:59;16.20;99.90
29255;DHT22;16277;48.890;2.306;2023-11-19T18:50:05;16.30;99.90
29255;DHT22;16277;48.890;2.306;2023-11-19T19:05:10;16.10;99.90
29255;DHT22;16277;48.890;2.306;2023-11-19T19:20:18;15.90;99.90
29255;DHT22;16277;48.890;2.306;2023-11-19T19:35:24;16.20;99.90
29255;DHT22;16277;48.890;2.306;2023-11-19T19:50:32;16.00;99.90
29255;DHT22;16277;48.890;2.306;2023-11-19T20:05:36;15.70;99.90
29255;DHT22;16277;48.890;2.306;2023-11-19T20:20:41;15.70;99.90
29255;DHT22;16277;48.890;2.306;2023-11-19T20:35:46;15.80;99.90
29255;DHT22;16277;48.890;2.306;2023-11-19T20:50:50;15.60;99.90
29255;DHT22;16277;48.890;2.306;2023-11-19T21:05:55;15.40;99.90
29255;DHT22;16277;48.890;2.306;2023-11-19T21:20:59;15.30;99.90
29255;DHT22;16277;48.890;2.306;2023-11-19T21:36:04;15.40;99.90
29255;DHT22;16277;48.890;2.306;2023-11-19T21:51:09;15.40;99.90
29255;DHT22;16277;48.890;2.306;2023-11-19T22:06:17;15.20;99.90
29255;DHT22;16277;48.890;2.306;2023-11-19T22:21:22;15.20;99.90
29255;DHT22;16277;48.890;2.306;2023-11-19T22:36:28;15.20;99.90
29255;DHT22;16277;48.890;2.306;2023-11-19T22:51:33;15.10;99.90
29255;DHT22;16277;48.890;2.306;2023-11-19T23:06:38;14.80;99.90
29255;DHT22;16277;48.890;2.306;2023-11-19T23:21:43;14.90;99.90
29255;DHT22;16277;48.890;2.306;2023-11-19T23:36:48;14.80;99.90
29255;DHT22;16277;48.890;2.306;2023-11-19T23:51:52;14.70;99.90
